MGN weather

Harbor Springs Airport
Harbor Springs, Michigan, United States

Public forecast

Using degrees Fahrenheit for public forecast. Weather courtesy of forecast.io.

Current aviation weather report (METAR) for Harbor Springs Airport

Retrieved 2019/10/17 01:36 UTC (0 seconds ago):

KMGN 170136Z AUTO 34007KT 310V030 10SM SCT033 OVC041 08/02 A2984 RMK AO2 T00820020

Closest aviation forecast (TAF) to Harbor Springs Airport

Forecast is more than 6 hours old.

Closest forecast is Pellston Regional Airport of Emmet County Airport, 10.0 nm (18.5 km) NNE. Retrieved 2019/10/16 18:51 UTC (7 hours ago):

TAF KPLN 161749Z 1618/1718 36016G30KT P6SM VCSH OVC016 FM162100 36015G28KT P6SM OVC026 FM162300 34013KT P6SM OVC035 FM170700 32010KT P6SM OVC028